03:50
Airports
History
Links
Donate
Help keep this website running!
PayPal
Bitcoin
This page is community maintained. The information is intended for PC simulator navigation or reference.
Always use approved charts for navigation.
SIYX
Fazenda Varginha
Fazenda Varginha (SIYX)
Andradas, Minas Gerais, Brazil (37795)
4
Lat/Lng:21° 56' 60" S / 46° 32' 60" W
-21.95 / -46.55
Elevation:4200'ft / 1280mMSL
ID / ICAO:SIYX
Runways:1
Longest:15-33
Dirt 805m / 2,640ft
Nearby Weather19:00 GMT 2017-11-23
Nearby weather at SBPC, POCOS DE CALDAS located 7.5 nautical miles from SIYX
Altimeter: 30.03
Visibility: 6.2 statute miles
Wind: 4 knots (from 360°)
Temp: 26°c / 79°f
Humidity: 69.6%

METAR: SBPC 231900Z 36004KT 9999 BKN015 FEW025TCU 26/20 Q1017

(Powered by phpweather)
Runway 15 / 33
Dimensions:804.7 x 20.1m 2640' x 66'ft
Surface:Dirt
Runway 15 [A]Runway 33 [B]
Heading:131°TH 311°TH
Lat:
Lng:
21° 56' 51.31"S
46° 33' 10.65"W
21° 57' 8.69"S
46° 32' 49.35"W
User Notes and Comments
21° 56' 60" S / 46° 32' 60" W
Distance To
Airport ID:
Nearby Airports
(C) POCOS DE CALDAS 7.5 NM
SBPC ( WX ) N 351°
(U) Sao Joao da Boa Vista 19.2 NM
SDJV WSW 256°
(U) IRMAOS RIBEIRO 20.4 NM
SDIB SW 225°
(C) Ouro Fino 26.0 NM
SNOF SSE 157°
4 Fazenda Campo Vitoria 27.2 NM
SDVA WNW 287°
(U) Aeroclube de Sao Jose do Rio Pardo 32.4 NM
SIPA NW 310°
4 Fazenda Santo Antonio do Oricanga 33.5 NM
SDCT SW 234°
VFR Chart
Flight Planning at SkyVector.com